EW1884 Linesoya NO current weather conditions

sailwx.info

Wind from 153 at 4 knots gusting 4

Air temperature 4.4° C
Dewpoint -2.2° C

Last reported at 2019-Dec-13 00:00 UTC.
Time now 2019-Dec-13 00:59 UTC

Location: N 64°01' E 009°53'.
View on Google Maps.

See reports from other nearby stations

  
Tides and Currents Weather Stations Pressure Air Temp Water Temp Dewpoint Dewpoint Depression Visibility Wind Speed Wind Dir Waves Ship Positions
date/time (UTC)wind fromknots sea level pressurealtimeterstation pressurevisibilityair tempwater tempwave heightnotes
2019-Dec-13 00:00 153 4 gusting 4 4.4
2019-Dec-12 23:50 091 1 gusting 3 4.4
2019-Dec-12 23:40 101 4 gusting 5 4.4
2019-Dec-12 23:30 225 2 gusting 2 4.4
2019-Dec-12 23:20 135 3 gusting 5 4.4
2019-Dec-12 23:10 180 6 gusting 6 5.0
2019-Dec-12 23:00 135 9 gusting 9 5.0
2019-Dec-12 22:50 180 8 gusting 14 5.0
2019-Dec-12 22:40 113 6 gusting 6 5.0
2019-Dec-12 22:30 158 4 gusting 5 5.0
2019-Dec-12 22:20 175 5 gusting 13 5.0
2019-Dec-12 22:08 165 7 gusting 12
2019-Dec-12 21:58 234 4 gusting 6 5.6
2019-Dec-12 21:48 166 8 gusting 9
2019-Dec-12 21:38 135 7 gusting 8 5.6
2019-Dec-12 21:28 064 6 gusting 10 5.6
2019-Dec-12 21:18 135 7 gusting 11 5.6
2019-Dec-12 21:08 151 6 gusting 6 5.6
2019-Dec-12 20:58 171 9 gusting 11 5.6
2019-Dec-12 20:48 153 6 gusting 14 5.6
2019-Dec-12 20:38 130 7 gusting 12 5.6
2019-Dec-12 20:28 208 5 gusting 6 5.6
2019-Dec-12 20:18 073 6 gusting 13 5.6
2019-Dec-12 20:08 063 6 gusting 9 5.6
2019-Dec-12 19:58 124 6 gusting 12 5.6
2019-Dec-12 19:47 180 8 gusting 8 5.6
2019-Dec-12 19:37 124 6 gusting 13 5.6
2019-Dec-12 19:27 056 8 gusting 8 5.6
2019-Dec-12 19:17 173 5 gusting 11 5.6
2019-Dec-12 19:07 180 5 gusting 12 5.6
2019-Dec-12 18:57 171 6 gusting 13 5.0
2019-Dec-12 18:47 181 4 gusting 5 5.0
2019-Dec-12 18:37 202 6 gusting 7 5.0
2019-Dec-12 18:27 300 5 gusting 5 5.0
2019-Dec-12 18:17 334 7 gusting 11 5.6
2019-Dec-12 18:07 204 5 gusting 9 5.6
2019-Dec-12 17:57 180 4 gusting 4 5.6
2019-Dec-12 17:47 171 9 gusting 13 5.6
2019-Dec-12 17:37 153 6 gusting 7 5.6
2019-Dec-12 17:27 135 11 gusting 19 5.6
2019-Dec-12 17:17 080 9 gusting 9 5.6
2019-Dec-12 17:07 102 8 gusting 9 5.6
2019-Dec-12 16:57 180 5 gusting 10 5.6
2019-Dec-12 16:47 135 13 gusting 14 6.1
2019-Dec-12 16:34 180 8 gusting 12 6.1
2019-Dec-12 16:24 180 13 gusting 13 6.1
2019-Dec-12 16:14 140 12 gusting 13 6.1
2019-Dec-12 16:04 166 12 gusting 13 6.1
2019-Dec-12 15:54 191 12 gusting 13 6.1
2019-Dec-12 15:44 199 10 gusting 11
2019-Dec-12 15:34 180 12 gusting 19 6.1
2019-Dec-12 15:24 114 9 gusting 10 6.1
2019-Dec-12 15:12 172 11 gusting 14 6.1
2019-Dec-12 14:59 152 12 gusting 23 6.1
2019-Dec-12 14:49 180 10 gusting 13 6.1
2019-Dec-12 14:39 162 12 gusting 13 6.1
2019-Dec-12 14:29 158 13 gusting 15 6.7
2019-Dec-12 14:19 168 13 gusting 13 6.7
2019-Dec-12 14:09 163 10 gusting 12 6.7
2019-Dec-12 13:59 169 11 gusting 15 6.7
2019-Dec-12 13:49 135 11 gusting 12 6.7
2019-Dec-12 13:39 171 12 gusting 14 6.7
2019-Dec-12 13:29 165 12 gusting 26 6.1
2019-Dec-12 13:19 180 8 gusting 19 6.7
2019-Dec-12 13:09 162 13 gusting 26 6.7
2019-Dec-12 12:59 180 10 gusting 18 6.7
2019-Dec-12 12:49 169 12 gusting 13 6.7
2019-Dec-12 12:39 161 9 gusting 19 6.7
2019-Dec-12 12:29 146 9 gusting 13 6.7
2019-Dec-12 12:19 158 13 gusting 20 6.7
2019-Dec-12 12:09 182 11 gusting 19 6.7
2019-Dec-12 11:59 167 12 gusting 15 6.7
2019-Dec-12 11:49 180 13 gusting 14
2019-Dec-12 11:39 180 13 gusting 13 6.7
2019-Dec-12 11:29 153 9 gusting 9 6.7
2019-Dec-12 11:19 191 12 gusting 20 6.7
2019-Dec-12 11:09 170 10 gusting 16 6.7
2019-Dec-12 11:00 169 14 gusting 19 6.7
2019-Dec-12 10:50 159 6 gusting 13 6.7
2019-Dec-12 10:44 143 8 gusting 12 6.7
2019-Dec-12 10:34 144 9 gusting 10 6.7
2019-Dec-12 10:24 161 11 gusting 15 6.7
2019-Dec-12 10:19 180 11 gusting 16 6.7
2019-Dec-12 10:09 145 8 gusting 21 6.7
2019-Dec-12 09:59 153 10 gusting 12 6.7
2019-Dec-12 09:49 150 6 gusting 6 6.7
2019-Dec-12 09:39 180 11 gusting 24 6.7
2019-Dec-12 09:29 135 10 gusting 14 6.7
2019-Dec-12 09:19 159 8 gusting 13 6.7
2019-Dec-12 09:09 135 9 gusting 10 6.7
2019-Dec-12 08:59 180 11 gusting 13 6.7
2019-Dec-12 08:53 203 12 gusting 15 6.7
2019-Dec-12 08:43 140 10 gusting 19 6.7
2019-Dec-12 08:33 180 11 gusting 13 6.7
2019-Dec-12 08:23 180 11 gusting 19 6.7
2019-Dec-12 08:13 199 7 gusting 11 6.7
2019-Dec-12 08:03 192 11 gusting 13 6.7
2019-Dec-12 07:53 213 7 gusting 9 6.7
2019-Dec-12 07:43 180 14 gusting 14 6.7
2019-Dec-12 07:33 180 8 gusting 20 6.7
2019-Dec-12 07:23 180 9 gusting 12 6.7
2019-Dec-12 07:03 165 9 gusting 13 6.7
2019-Dec-12 06:53 158 10 gusting 21
2019-Dec-12 06:43 180 9 gusting 20 6.7
2019-Dec-12 06:33 169 9 gusting 13 6.7
2019-Dec-12 06:23 164 13 gusting 19
2019-Dec-12 06:13 166 11 gusting 18 6.7
2019-Dec-12 06:03 157 12 gusting 15 6.7
2019-Dec-12 05:53 147 12 gusting 21 6.7
2019-Dec-12 05:47 158 13 gusting 16 6.7
2019-Dec-12 05:37 199 14 gusting 19 6.7
2019-Dec-12 05:27 211 12 gusting 14 6.7
2019-Dec-12 05:17 180 9 gusting 23 6.7
2019-Dec-12 05:07 149 13 gusting 20
2019-Dec-12 04:57 158 17 gusting 20 6.7
2019-Dec-12 04:47 180 13 gusting 19 6.7
2019-Dec-12 04:37 180 13 gusting 19 6.7
2019-Dec-12 04:27 180 13 gusting 20 6.7
2019-Dec-12 04:17 180 16 gusting 16 6.7
2019-Dec-12 04:07 180 13 gusting 25 6.7
2019-Dec-12 03:57 180 13 gusting 14 6.7
2019-Dec-12 03:47 174 13 gusting 23 6.7
2019-Dec-12 03:37 180 13 gusting 20 6.7
2019-Dec-12 03:27 180 14 gusting 24 6.7
2019-Dec-12 03:17 180 12 gusting 13 6.1
2019-Dec-12 03:07 190 7 gusting 22 6.1
2019-Dec-12 02:57 170 13 gusting 19 6.1
2019-Dec-12 02:47 180 14 gusting 19 6.1
2019-Dec-12 02:37 170 13 gusting 26 6.1
2019-Dec-12 02:27 163 7 gusting 19 6.1
2019-Dec-12 02:17 180 10 gusting 10 6.1
2019-Dec-12 02:07 105 13 gusting 24 6.1
2019-Dec-12 01:57 180 13 gusting 13 6.1
2019-Dec-12 01:47 195 13 gusting 19 6.1
2019-Dec-12 01:37 170 10 gusting 14 6.1
2019-Dec-12 01:27 157 15 gusting 19
2019-Dec-12 01:17 180 13 gusting 15
2019-Dec-12 01:07 139 10 gusting 14 6.1
2019-Dec-12 00:57 180 13 gusting 22
2019-Dec-12 00:47 195 13 gusting 13 6.1
2019-Dec-12 00:37 130 12 gusting 19 6.1
2019-Dec-12 00:27 180 13 gusting 23 6.1
2019-Dec-12 00:17 153 9 gusting 14 6.1
2019-Dec-12 00:07 147 12 gusting 30 6.1
2019-Dec-11 23:57 169 13 gusting 16 6.1
2019-Dec-11 23:47 180 11 gusting 22 6.1
2019-Dec-11 23:37 149 11 gusting 14 6.1
2019-Dec-11 23:27 180 17 gusting 17 6.1
2019-Dec-11 23:17 149 12 gusting 13 6.1
2019-Dec-11 23:07 180 13 gusting 14 6.1
2019-Dec-11 22:57 135 14 gusting 19 6.1
2019-Dec-11 22:47 176 9 gusting 14 6.1
2019-Dec-11 22:37 180 13 gusting 14 6.1
2019-Dec-11 22:27 197 11 gusting 17 6.1
2019-Dec-11 22:17 180 12 gusting 20 6.1
2019-Dec-11 22:07 165 11 gusting 17 6.1
2019-Dec-11 21:59 221 11 gusting 13 5.6
2019-Dec-11 21:49 213 11 gusting 15 6.1
2019-Dec-11 21:39 045 12 gusting 13
2019-Dec-11 21:29 150 12 gusting 16 5.6
2019-Dec-11 21:19 127 6 gusting 14 5.6
2019-Dec-11 21:09 180 6 gusting 7
2019-Dec-11 20:59 165 6 gusting 20 5.6
2019-Dec-11 20:49 135 7 gusting 11 5.6
2019-Dec-11 20:39 225 10 gusting 16
2019-Dec-11 20:29 154 9 gusting 10 6.1
2019-Dec-11 20:19 153 9 gusting 13 6.1
2019-Dec-11 20:09 180 13 gusting 13 6.1
2019-Dec-11 19:59 153 8 gusting 8 5.6
2019-Dec-11 19:49 180 11 gusting 11 6.1
2019-Dec-11 19:39 032 12 gusting 13 6.1
2019-Dec-11 19:29 083 9 gusting 12 6.1
2019-Dec-11 19:19 135 7 gusting 7 6.1
2019-Dec-11 19:09 112 10 gusting 13 6.1
2019-Dec-11 18:55 116 10 gusting 13 6.1
2019-Dec-11 18:45 157 13 gusting 13
2019-Dec-11 18:35 161 9 gusting 16 6.1
2019-Dec-11 18:25 167 6 gusting 9 6.1
2019-Dec-11 18:15 164 6 gusting 17
2019-Dec-11 18:05 149 9 gusting 19 6.1
2019-Dec-11 17:55 321 9 gusting 11 6.1
2019-Dec-11 17:45 328 4 gusting 5 5.6
2019-Dec-11 17:35 154 6 gusting 16 6.1
2019-Dec-11 17:25 115 9 gusting 13 6.1
2019-Dec-11 17:15 147 8 gusting 19 6.1
2019-Dec-11 17:05 090 6 gusting 6 6.1
2019-Dec-11 16:55 180 6 gusting 8 5.6
2019-Dec-11 16:45 075 6 gusting 8 5.6
2019-Dec-11 16:35 349 5 gusting 5 5.0
2019-Dec-11 16:25 008 2 gusting 4 5.0
2019-Dec-11 16:15 158 3 gusting 7 5.0
2019-Dec-11 16:05 341 2 gusting 2 5.0
2019-Dec-11 15:55 203 2 gusting 2 5.0
2019-Dec-11 15:45 045 2 gusting 5 5.0
2019-Dec-11 15:35 135 2 gusting 5 5.0
2019-Dec-11 15:25 080 1 gusting 2 5.0
2019-Dec-11 15:15 203 2 gusting 3 5.0
2019-Dec-11 15:04 180 3 gusting 5 5.6
2019-Dec-11 14:54 103 5 gusting 6 5.6
2019-Dec-11 14:44 105 6 gusting 6 5.6
2019-Dec-11 14:34 056 4 gusting 6 5.6
2019-Dec-11 14:24 045 4 gusting 4 6.1
2019-Dec-11 14:14 144 8 gusting 13 6.7
2019-Dec-11 14:04 180 8 gusting 14 6.7
2019-Dec-11 13:54 150 4 gusting 5 6.1
2019-Dec-11 13:46 133 10 gusting 14 6.7
2019-Dec-11 13:36 163 10 gusting 13 6.7
2019-Dec-11 13:26 180 9 gusting 10 6.7
2019-Dec-11 13:16 180 10 gusting 10 6.7
2019-Dec-11 13:06 135 5 gusting 5 6.1
2019-Dec-11 12:56 169 7 gusting 11 6.1
2019-Dec-11 12:46 173 5 gusting 6 6.1
2019-Dec-11 12:36 145 4 gusting 7 6.1
2019-Dec-11 12:30 165 4 gusting 5 6.1
2019-Dec-11 12:20 135 4 gusting 7 6.1
2019-Dec-11 12:10 125 3 gusting 6 6.1
2019-Dec-11 12:00 150 6 gusting 6 6.7
2019-Dec-11 11:50 143 5 gusting 9 6.1
2019-Dec-11 11:40 146 3 gusting 4 6.7
2019-Dec-11 11:30 157 6 gusting 9 6.7
2019-Dec-11 11:20 135 6 gusting 7 6.7
2019-Dec-11 11:10 135 6 gusting 6
2019-Dec-11 11:00 188 6 gusting 6 6.1
2019-Dec-11 10:50 180 6 gusting 9 6.1
2019-Dec-11 10:40 208 5 gusting 6 6.1
2019-Dec-11 10:32 180 6 gusting 6 6.1
2019-Dec-11 10:22 180 5 gusting 8 6.7
2019-Dec-11 10:12 203 7 gusting 9 6.7
2019-Dec-11 10:02 214 7 gusting 7
2019-Dec-11 09:52 204 8 gusting 10 6.7
2019-Dec-11 09:42 180 8 gusting 12 6.7
2019-Dec-11 09:32 180 7 gusting 8 6.7
2019-Dec-11 09:23 180 6 gusting 8
2019-Dec-11 09:13 214 7 gusting 9 6.7
2019-Dec-11 09:03 216 10 gusting 13 6.7
2019-Dec-11 08:53 212 9 gusting 9 6.7
2019-Dec-11 08:43 170 11 gusting 16 6.7
2019-Dec-11 08:33 180 8 gusting 9 6.7
2019-Dec-11 08:28 180 8 gusting 13
2019-Dec-11 08:18 165 6 gusting 8 6.7
2019-Dec-11 08:08 180 6 gusting 6 6.7
2019-Dec-11 07:55 180 8 gusting 11 6.7
2019-Dec-11 07:45 180 10 gusting 13 6.7
2019-Dec-11 07:35 180 6 gusting 6 6.7
2019-Dec-11 07:25 180 6 gusting 7 6.7
2019-Dec-11 07:15 180 5 gusting 7 6.7
2019-Dec-11 07:02 198 8 gusting 10 6.7
2019-Dec-11 06:52 180 11 gusting 16 6.7
2019-Dec-11 06:42 180 12 gusting 13 6.7
2019-Dec-11 06:32 180 8 gusting 8 6.1
2019-Dec-11 06:22 090 3 gusting 5
2019-Dec-11 06:12 020 1 gusting 3 5.6
2019-Dec-11 06:02 045 3 gusting 3 5.6
2019-Dec-11 05:52 090 3 gusting 3
2019-Dec-11 05:42 135 5 gusting 6 6.1
2019-Dec-11 05:30 160 6 gusting 6 6.1
2019-Dec-11 05:20 151 6 gusting 6 6.1
2019-Dec-11 05:16 180 8 gusting 11 6.1
2019-Dec-11 05:06 200 5 gusting 6 6.1
2019-Dec-11 04:56 180 6 gusting 7 6.1
2019-Dec-11 04:46 180 10 gusting 10 6.1
2019-Dec-11 04:36 210 9 gusting 13
2019-Dec-11 04:26 204 8 gusting 10 6.1
2019-Dec-11 04:15 209 11 gusting 13 6.1
2019-Dec-11 04:05 225 13 gusting 13 6.1
2019-Dec-11 03:55 180 11 gusting 11 6.7
2019-Dec-11 03:45 180 13 gusting 17 6.7
2019-Dec-11 03:35 180 14 gusting 14
2019-Dec-11 03:25 225 16 gusting 18 6.7
2019-Dec-11 03:15 180 9 gusting 17 6.7
2019-Dec-11 03:05 225 5 gusting 6
2019-Dec-11 02:55 180 10 gusting 10 6.7
2019-Dec-11 02:45 6.7
2019-Dec-11 02:35
2019-Dec-11 02:25 135 13 gusting 14 6.7
2019-Dec-11 02:15 6.1
2019-Dec-11 02:05 6.1
2019-Dec-11 01:55 6.1
2019-Dec-11 01:45 6.1
2019-Dec-11 01:35 135 9 gusting 9 6.1
2019-Dec-11 01:25 6.1
2019-Dec-11 01:15 225 12 gusting 14 6.1
2019-Dec-11 01:05 180 14 gusting 14 5.6
2019-Dec-11 00:55 270 8 gusting 8 5.6
2019-Dec-11 00:45 5.6
2019-Dec-11 00:35 5.6
2019-Dec-11 00:25 5.6
2019-Dec-11 00:15 5.0
2019-Dec-11 00:05 180 9 gusting 18 5.0